createdAt,value
2019-05-23T00:01:14.296Z,4.85
2019-05-23T00:03:50.082Z,4.83
2019-05-23T00:06:24.730Z,5.08
2019-05-23T00:09:00.571Z,4.92
2019-05-23T00:11:35.220Z,4.80
2019-05-23T00:14:12.910Z,4.67
2019-05-23T00:16:46.956Z,4.27
2019-05-23T00:19:22.350Z,4.33
2019-05-23T00:21:57.132Z,3.30
2019-05-23T00:24:31.186Z,3.63
2019-05-23T00:27:06.178Z,3.50
2019-05-23T00:29:41.709Z,3.27
2019-05-23T00:32:17.622Z,3.00
2019-05-23T00:34:52.458Z,3.03
2019-05-23T00:37:29.296Z,3.07
2019-05-23T00:40:04.332Z,3.17
2019-05-23T00:42:39.565Z,2.70
2019-05-23T00:45:15.203Z,2.90
2019-05-23T00:47:49.101Z,3.17
2019-05-23T00:50:24.009Z,2.83
2019-05-23T00:52:59.293Z,3.00
2019-05-23T00:55:33.482Z,2.40
2019-05-23T00:58:25.625Z,2.37
2019-05-23T01:01:01.739Z,2.33
2019-05-23T01:03:37.661Z,2.20
2019-05-23T01:06:11.347Z,2.23
2019-05-23T01:08:46.898Z,2.47
2019-05-23T01:11:22.409Z,2.40
2019-05-23T01:13:58.091Z,2.43
2019-05-23T01:16:33.204Z,1.92
2019-05-23T01:19:08.816Z,2.30
2019-05-23T01:21:42.658Z,2.25
2019-05-23T01:24:16.401Z,1.93
2019-05-23T01:26:51.747Z,2.00
2019-05-23T01:29:37.123Z,1.87
2019-05-23T01:32:04.194Z,2.25
2019-05-23T01:34:38.440Z,2.35
2019-05-23T01:37:13.968Z,2.02
2019-05-23T01:39:49.503Z,2.47
2019-05-23T01:42:23.614Z,1.60
2019-05-23T01:44:59.300Z,1.93
2019-05-23T01:47:32.835Z,2.02
2019-05-23T01:50:09.788Z,2.30
2019-05-23T01:52:44.522Z,2.10
2019-05-23T01:55:20.634Z,2.50
2019-05-23T01:57:55.411Z,2.35
2019-05-23T02:00:31.148Z,2.50
2019-05-23T02:03:05.295Z,2.60
2019-05-23T02:05:41.144Z,2.37
2019-05-23T02:08:16.577Z,3.00
2019-05-23T02:10:51.253Z,2.60
2019-05-23T02:13:26.666Z,2.70
2019-05-23T02:16:00.453Z,2.42
2019-05-23T02:18:35.927Z,2.33
2019-05-23T02:21:11.290Z,2.80
2019-05-23T02:23:45.204Z,2.40
2019-05-23T02:26:21.545Z,2.53
2019-05-23T02:28:56.924Z,2.87
2019-05-23T02:31:31.163Z,2.47
2019-05-23T02:34:06.476Z,3.52
2019-05-23T02:36:40.242Z,2.65
2019-05-23T02:39:16.075Z,2.60
2019-05-23T02:41:49.921Z,2.13
2019-05-23T02:44:25.433Z,2.90
2019-05-23T02:47:01.510Z,3.60
2019-05-23T02:49:37.024Z,2.40
2019-05-23T02:52:16.281Z,2.67
2019-05-23T02:54:51.584Z,2.10
2019-05-23T02:57:26.874Z,2.73
2019-05-23T03:00:06.280Z,2.17
2019-05-23T03:02:48.193Z,2.25
2019-05-23T03:05:24.253Z,2.50
2019-05-23T03:07:59.651Z,2.55
2019-05-23T03:10:36.111Z,2.25
2019-05-23T03:13:12.531Z,2.30
2019-05-23T03:15:46.461Z,2.60
2019-05-23T03:18:22.770Z,2.67
2019-05-23T03:20:56.586Z,2.63
2019-05-23T03:23:34.784Z,2.20
2019-05-23T03:26:39.695Z,2.00
2019-05-23T03:29:13.897Z,2.77
2019-05-23T03:31:48.292Z,2.40
2019-05-23T03:34:23.768Z,2.60
2019-05-23T03:36:59.307Z,3.37
2019-05-23T03:39:33.032Z,2.80
2019-05-23T03:42:08.485Z,2.50
2019-05-23T03:44:42.476Z,3.02
2019-05-23T03:47:17.931Z,2.70
2019-05-23T03:49:53.385Z,2.30
2019-05-23T03:52:28.025Z,2.80
2019-05-23T03:55:03.405Z,3.30
2019-05-23T03:57:38.249Z,2.50
2019-05-23T04:00:15.766Z,2.67
2019-05-23T04:02:49.492Z,2.70
2019-05-23T04:05:42.389Z,3.37
2019-05-23T04:08:16.089Z,2.93
2019-05-23T04:10:52.107Z,2.80
2019-05-23T04:13:27.371Z,2.83
2019-05-23T04:16:01.081Z,2.98
2019-05-23T04:18:34.921Z,2.90
2019-05-23T04:21:08.703Z,3.27
2019-05-23T04:23:42.288Z,3.00
2019-05-23T04:26:17.198Z,2.63
2019-05-23T04:28:51.003Z,3.47
2019-05-23T04:31:25.483Z,3.67
2019-05-23T04:34:00.472Z,4.07
2019-05-23T04:36:34.227Z,4.08
2019-05-23T04:39:12.141Z,3.80
2019-05-23T04:41:47.221Z,4.00
2019-05-23T04:44:22.398Z,4.80
2019-05-23T04:46:56.664Z,3.67
2019-05-23T04:49:30.340Z,4.08
2019-05-23T04:52:04.473Z,4.55
2019-05-23T04:54:39.720Z,4.17
2019-05-23T04:57:13.814Z,3.85
2019-05-23T04:59:47.647Z,3.83
2019-05-23T05:02:26.081Z,3.70
2019-05-23T05:04:58.874Z,3.70
2019-05-23T05:07:33.936Z,3.42
2019-05-23T05:10:10.269Z,3.77
2019-05-23T05:12:45.589Z,3.57
2019-05-23T05:15:19.494Z,3.10
2019-05-23T05:17:54.797Z,3.40
2019-05-23T05:20:29.356Z,3.43
2019-05-23T05:23:02.977Z,3.87
2019-05-23T05:25:40.210Z,3.95
2019-05-23T05:28:15.793Z,3.80
2019-05-23T05:30:50.494Z,3.33
2019-05-23T05:33:25.481Z,3.70
2019-05-23T05:36:00.609Z,3.60
2019-05-23T05:38:34.388Z,3.40
2019-05-23T05:41:09.741Z,3.58
2019-05-23T05:43:45.069Z,3.60
2019-05-23T05:46:19.012Z,3.57
2019-05-23T05:49:02.091Z,3.83
2019-05-23T05:51:36.288Z,3.73
2019-05-23T05:54:10.000Z,3.65
2019-05-23T05:56:45.200Z,4.50
2019-05-23T05:59:20.051Z,4.30
2019-05-23T06:01:54.434Z,5.27
2019-05-23T06:04:28.106Z,4.77
2019-05-23T06:07:02.625Z,3.90
2019-05-23T06:09:36.764Z,3.85
2019-05-23T06:12:12.063Z,3.72
2019-05-23T06:14:47.086Z,3.53
2019-05-23T06:17:21.139Z,6.30
2019-05-23T06:19:56.059Z,3.70
2019-05-23T06:22:29.393Z,4.13
2019-05-23T06:25:04.195Z,3.65
2019-05-23T06:27:40.647Z,4.27
2019-05-23T06:30:17.280Z,3.90
2019-05-23T06:32:51.237Z,4.57
2019-05-23T06:35:25.343Z,4.20
2019-05-23T06:37:59.399Z,5.43
2019-05-23T06:40:33.997Z,4.58
2019-05-23T06:43:07.735Z,8.18
2019-05-23T06:45:43.779Z,5.03
2019-05-23T06:48:18.381Z,3.57
2019-05-23T06:50:53.697Z,4.20
2019-05-23T06:53:27.375Z,3.90
2019-05-23T06:56:01.269Z,4.23
2019-05-23T06:58:36.348Z,5.10
2019-05-23T07:01:10.399Z,7.07
2019-05-23T07:03:46.266Z,4.22
2019-05-23T07:06:24.793Z,7.07
2019-05-23T07:09:00.599Z,5.43
2019-05-23T07:11:34.306Z,4.40
2019-05-23T07:14:12.388Z,4.75
2019-05-23T07:16:50.325Z,5.13
2019-05-23T07:19:23.358Z,4.23
2019-05-23T07:21:57.832Z,4.30
2019-05-23T07:24:31.903Z,4.03
2019-05-23T07:27:14.316Z,4.03
2019-05-23T07:29:50.053Z,3.90
2019-05-23T07:32:27.809Z,3.83
2019-05-23T07:35:01.907Z,4.07
2019-05-23T07:37:37.345Z,4.20
2019-05-23T07:40:11.194Z,3.90
2019-05-23T07:42:49.606Z,4.30
2019-05-23T07:45:42.895Z,4.23
2019-05-23T07:48:18.039Z,4.57
2019-05-23T07:50:51.789Z,4.23
2019-05-23T07:53:27.814Z,4.07
2019-05-23T07:56:02.208Z,4.47
2019-05-23T07:58:37.516Z,4.42
2019-05-23T08:01:17.083Z,4.50
2019-05-23T08:03:52.985Z,4.10
2019-05-23T08:06:26.536Z,4.30
2019-05-23T08:09:01.694Z,4.33
2019-05-23T08:11:37.454Z,4.77
2019-05-23T08:14:12.211Z,4.03
2019-05-23T08:16:45.847Z,3.98
2019-05-23T08:19:20.021Z,3.83
2019-05-23T08:21:55.130Z,3.57
2019-05-23T08:24:28.684Z,3.73
2019-05-23T08:27:04.223Z,3.40
2019-05-23T08:29:37.919Z,3.83
2019-05-23T08:32:12.729Z,3.80
2019-05-23T08:34:48.388Z,3.80
2019-05-23T08:37:22.025Z,3.83
2019-05-23T08:39:57.370Z,3.50
2019-05-23T08:42:32.643Z,3.30
2019-05-23T08:45:11.795Z,3.42
2019-05-23T08:47:47.040Z,16.73
2019-05-23T08:50:21.850Z,3.60
2019-05-23T08:52:55.596Z,3.02
2019-05-23T08:55:32.160Z,3.37
2019-05-23T08:58:06.312Z,3.40
2019-05-23T09:00:40.018Z,3.60
2019-05-23T09:03:14.280Z,3.80
2019-05-23T09:05:50.597Z,3.83
2019-05-23T09:08:25.737Z,3.67
2019-05-23T09:11:00.639Z,3.45
2019-05-23T09:13:35.739Z,3.77
2019-05-23T09:16:13.763Z,3.60
2019-05-23T09:18:48.781Z,3.53
2019-05-23T09:21:24.596Z,3.53
2019-05-23T09:23:59.689Z,4.30
2019-05-23T09:26:33.361Z,3.87
2019-05-23T09:29:07.369Z,3.90
2019-05-23T09:31:41.430Z,3.77
2019-05-23T09:34:17.404Z,3.62
2019-05-23T09:36:51.328Z,3.87
2019-05-23T09:39:26.454Z,3.40
2019-05-23T09:42:02.466Z,3.70
2019-05-23T09:44:37.546Z,4.08
2019-05-23T09:47:11.436Z,4.23
2019-05-23T09:49:53.796Z,4.33
2019-05-23T09:52:22.168Z,5.73
2019-05-23T09:54:57.345Z,4.47
2019-05-23T09:57:33.022Z,4.67
2019-05-23T10:00:10.916Z,4.33
2019-05-23T10:02:46.119Z,4.57
2019-05-23T10:05:40.076Z,3.90
2019-05-23T10:07:55.194Z,3.80
2019-05-23T10:10:30.273Z,4.07
2019-05-23T10:13:03.891Z,3.90
2019-05-23T10:15:38.064Z,3.80
2019-05-23T10:18:12.729Z,4.00
2019-05-23T10:20:47.609Z,4.00
2019-05-23T10:23:21.924Z,4.13
2019-05-23T10:25:55.642Z,4.63
2019-05-23T10:28:29.461Z,4.10
2019-05-23T10:31:04.506Z,4.30
2019-05-23T10:33:39.335Z,4.30
2019-05-23T10:36:13.273Z,4.35
2019-05-23T10:38:47.305Z,4.62
2019-05-23T10:41:21.545Z,4.83
2019-05-23T10:43:56.258Z,4.57
2019-05-23T10:46:31.741Z,4.67
2019-05-23T10:49:07.414Z,4.43
2019-05-23T10:51:41.470Z,4.90
2019-05-23T10:54:15.293Z,5.37
2019-05-23T10:56:51.035Z,5.67
2019-05-23T10:59:26.992Z,5.77
2019-05-23T11:02:02.431Z,6.47
2019-05-23T11:04:36.242Z,5.50
2019-05-23T11:07:10.241Z,5.70
2019-05-23T11:09:44.638Z,5.83
2019-05-23T11:12:18.325Z,5.77
2019-05-23T11:15:12.155Z,6.20
2019-05-23T11:17:46.774Z,6.05
2019-05-23T11:20:24.157Z,6.13
2019-05-23T11:22:57.844Z,6.50
2019-05-23T11:25:32.625Z,5.30
2019-05-23T11:28:07.944Z,5.65
2019-05-23T11:30:43.094Z,6.50
2019-05-23T11:33:17.561Z,6.28
2019-05-23T11:35:53.075Z,6.72
2019-05-23T11:38:27.370Z,6.50
2019-05-23T11:41:01.499Z,6.77
2019-05-23T11:43:35.114Z,6.93
2019-05-23T11:46:09.338Z,7.05
2019-05-23T11:48:43.736Z,7.00
2019-05-23T11:54:29.448Z,6.90
2019-05-23T11:57:04.643Z,6.60
2019-05-23T11:59:39.197Z,6.75
2019-05-23T12:02:14.028Z,6.03
2019-05-23T12:04:48.108Z,6.53
2019-05-23T12:07:22.185Z,6.37
2019-05-23T12:09:56.444Z,7.23
2019-05-23T12:12:30.638Z,6.67
2019-05-23T12:15:05.937Z,6.37
2019-05-23T12:17:39.903Z,6.17
2019-05-23T12:20:14.455Z,6.08
2019-05-23T12:22:49.309Z,5.93
2019-05-23T12:25:23.678Z,6.40
2019-05-23T12:27:59.631Z,6.13
2019-05-23T12:30:33.565Z,5.90
2019-05-23T12:33:07.483Z,5.90
2019-05-23T12:35:41.190Z,5.87
2019-05-23T12:38:16.503Z,5.97
2019-05-23T12:40:50.751Z,6.17
2019-05-23T12:43:24.962Z,6.17
2019-05-23T12:46:00.978Z,6.35
2019-05-23T12:48:35.033Z,6.12
2019-05-23T12:51:08.963Z,6.07
2019-05-23T12:53:43.582Z,5.75
2019-05-23T12:56:17.841Z,5.70
2019-05-23T12:58:53.388Z,5.43
2019-05-23T13:01:47.018Z,5.70
2019-05-23T13:04:22.883Z,5.37
2019-05-23T13:06:56.943Z,5.30
2019-05-23T13:09:32.266Z,5.07
2019-05-23T13:12:06.313Z,5.20
2019-05-23T13:14:42.002Z,5.00
2019-05-23T13:17:16.059Z,4.80
2019-05-23T13:19:50.210Z,4.80
2019-05-23T13:22:24.281Z,4.77
2019-05-23T13:25:00.133Z,4.60
2019-05-23T13:27:34.034Z,4.90
2019-05-23T13:30:12.642Z,4.73
2019-05-23T13:32:46.564Z,4.90
2019-05-23T13:35:22.009Z,5.13
2019-05-23T13:37:58.119Z,4.80
2019-05-23T13:40:32.319Z,5.05
2019-05-23T13:43:09.100Z,5.17
2019-05-23T13:45:44.806Z,4.43
2019-05-23T13:48:20.634Z,5.00
2019-05-23T13:50:54.755Z,4.73
2019-05-23T13:53:30.387Z,4.90
2019-05-23T13:56:04.333Z,4.73
2019-05-23T13:58:38.614Z,4.70
2019-05-23T14:01:12.978Z,4.67
2019-05-23T14:03:53.981Z,4.80
2019-05-23T14:06:28.719Z,4.50
2019-05-23T14:09:03.169Z,5.03
2019-05-23T14:11:37.388Z,5.23
2019-05-23T14:14:14.627Z,4.80
2019-05-23T14:16:50.821Z,4.30
2019-05-23T14:19:28.581Z,4.60
2019-05-23T14:21:59.407Z,5.00
2019-05-23T14:24:37.614Z,4.75
2019-05-23T14:27:09.719Z,5.17
2019-05-23T14:29:43.626Z,4.40
2019-05-23T14:32:18.974Z,4.43
2019-05-23T14:34:54.996Z,5.03
2019-05-23T14:37:28.892Z,4.50
2019-05-23T14:40:03.028Z,5.12
2019-05-23T14:42:38.644Z,4.83
2019-05-23T14:45:12.972Z,4.57
2019-05-23T14:47:47.667Z,4.50
2019-05-23T14:50:21.830Z,5.00
2019-05-23T14:52:57.535Z,5.13
2019-05-23T14:56:04.232Z,5.17
2019-05-23T14:58:38.719Z,5.20
2019-05-23T15:01:13.150Z,4.93
2019-05-23T15:03:47.132Z,4.57
2019-05-23T15:06:20.827Z,5.20
2019-05-23T15:08:54.799Z,5.60
2019-05-23T15:11:28.863Z,5.47
2019-05-23T15:14:04.460Z,5.20
2019-05-23T15:16:40.169Z,6.10
2019-05-23T15:19:33.463Z,5.60
2019-05-23T15:21:50.670Z,6.10
2019-05-23T15:24:24.687Z,6.27
2019-05-23T15:26:59.881Z,6.50
2019-05-23T15:29:33.696Z,6.30
2019-05-23T15:32:09.418Z,6.25
2019-05-23T15:34:44.940Z,6.40
2019-05-23T15:37:18.869Z,5.87
2019-05-23T15:39:52.782Z,6.10
2019-05-23T15:42:28.028Z,6.20
2019-05-23T15:45:01.799Z,6.22
2019-05-23T15:47:35.702Z,6.17
2019-05-23T15:50:14.316Z,6.20
2019-05-23T15:52:48.947Z,6.37
2019-05-23T15:55:22.749Z,6.03
2019-05-23T15:57:56.872Z,6.47
2019-05-23T16:00:32.561Z,6.35
2019-05-23T16:03:06.564Z,6.60
2019-05-23T16:05:41.056Z,6.67
2019-05-23T16:08:16.344Z,6.17
2019-05-23T16:10:52.243Z,6.60
2019-05-23T16:13:26.245Z,6.73
2019-05-23T16:16:01.684Z,6.37
2019-05-23T16:18:37.268Z,6.60
2019-05-23T16:21:12.791Z,6.37
2019-05-23T16:23:46.786Z,7.23
2019-05-23T16:26:20.917Z,6.43
2019-05-23T16:28:56.866Z,6.93
2019-05-23T16:31:32.773Z,6.70
2019-05-23T16:34:06.854Z,7.05
2019-05-23T16:36:42.556Z,6.80
2019-05-23T16:39:16.649Z,6.73
2019-05-23T16:41:51.186Z,6.50
2019-05-23T16:44:25.319Z,6.20
2019-05-23T16:46:59.774Z,7.15
2019-05-23T16:49:35.827Z,6.63
2019-05-23T16:52:11.635Z,6.30
2019-05-23T16:54:45.481Z,6.40
2019-05-23T16:57:19.770Z,6.43
2019-05-23T16:59:55.184Z,6.72
2019-05-23T17:02:29.273Z,6.80
2019-05-23T17:05:09.641Z,6.43
2019-05-23T17:07:38.063Z,6.17
2019-05-23T17:10:12.198Z,6.70
2019-05-23T17:12:47.823Z,7.07
2019-05-23T17:15:23.339Z,7.30
2019-05-23T17:18:02.934Z,7.23
2019-05-23T17:20:33.889Z,6.85
2019-05-23T17:23:09.696Z,6.87
2019-05-23T17:25:45.206Z,7.43
2019-05-23T17:28:20.981Z,6.83
2019-05-23T17:30:56.444Z,7.00
2019-05-23T17:33:32.272Z,6.47
2019-05-23T17:36:06.282Z,6.57
2019-05-23T17:38:41.804Z,7.07
2019-05-23T17:41:16.990Z,7.57
2019-05-23T17:43:52.771Z,6.07
2019-05-23T17:46:28.114Z,7.00
2019-05-23T17:49:02.339Z,7.00
2019-05-23T17:51:37.847Z,6.47
2019-05-23T17:54:13.968Z,7.17
2019-05-23T17:56:47.942Z,7.20
2019-05-23T17:59:21.900Z,6.80
2019-05-23T18:01:57.030Z,6.40
2019-05-23T18:04:31.150Z,6.85
2019-05-23T18:07:05.771Z,7.20
2019-05-23T18:09:40.114Z,6.90
2019-05-23T18:12:15.384Z,6.80
2019-05-23T18:14:49.394Z,6.30
2019-05-23T18:17:23.196Z,6.87
2019-05-23T18:19:59.432Z,7.23
2019-05-23T18:22:34.439Z,6.77
2019-05-23T18:25:11.107Z,6.80
2019-05-23T18:27:46.626Z,7.13
2019-05-23T18:30:20.809Z,6.77
2019-05-23T18:32:56.164Z,6.95
2019-05-23T18:35:31.960Z,6.77
2019-05-23T18:38:05.963Z,6.80
2019-05-23T18:40:40.139Z,7.20
2019-05-23T18:43:13.957Z,7.17
2019-05-23T18:45:47.675Z,6.50
2019-05-23T18:48:21.453Z,7.20
2019-05-23T18:50:55.352Z,6.93
2019-05-23T18:53:30.606Z,8.40
2019-05-23T18:56:06.199Z,6.90
2019-05-23T18:58:40.937Z,6.70
2019-05-23T19:01:17.193Z,6.93
2019-05-23T19:03:53.527Z,6.77
2019-05-23T19:06:28.156Z,7.50
2019-05-23T19:09:03.783Z,6.57
2019-05-23T19:11:39.749Z,7.03
2019-05-23T19:14:13.658Z,7.20
2019-05-23T19:16:49.078Z,6.90
2019-05-23T19:19:25.090Z,7.10
2019-05-23T19:22:00.523Z,7.00
2019-05-23T19:24:36.897Z,6.90
2019-05-23T19:27:14.369Z,7.53
2019-05-23T19:29:47.807Z,7.30
2019-05-23T19:32:23.523Z,7.80
2019-05-23T19:34:57.205Z,7.13
2019-05-23T19:37:32.435Z,7.80
2019-05-23T19:40:11.813Z,7.10
2019-05-23T19:42:45.946Z,7.57
2019-05-23T19:45:21.401Z,7.10
2019-05-23T19:47:55.390Z,6.90
2019-05-23T19:50:31.626Z,7.17
2019-05-23T19:53:05.923Z,7.23
2019-05-23T19:55:40.249Z,7.62
2019-05-23T19:58:14.538Z,7.57
2019-05-23T20:00:48.490Z,7.90
2019-05-23T20:03:24.092Z,7.08
2019-05-23T20:05:59.614Z,7.60
2019-05-23T20:08:33.883Z,7.30
2019-05-23T20:11:07.930Z,7.23
2019-05-23T20:13:44.889Z,7.67
2019-05-23T20:16:20.029Z,7.27
2019-05-23T20:18:55.641Z,7.17
2019-05-23T20:21:31.625Z,7.30
2019-05-23T20:24:06.989Z,7.93
2019-05-23T20:26:42.776Z,7.90
2019-05-23T20:29:16.812Z,8.60
2019-05-23T20:31:51.105Z,8.07
2019-05-23T20:34:25.298Z,8.37
2019-05-23T20:37:01.462Z,8.00
2019-05-23T20:39:35.410Z,8.48
2019-05-23T20:42:11.715Z,8.53
2019-05-23T20:44:44.587Z,8.60
2019-05-23T20:47:20.278Z,8.17
2019-05-23T20:49:55.910Z,8.27
2019-05-23T20:52:31.364Z,8.40
2019-05-23T20:55:05.687Z,9.08
2019-05-23T20:57:41.355Z,8.20
2019-05-23T21:00:16.715Z,9.10
2019-05-23T21:02:50.393Z,8.47
2019-05-23T21:05:25.570Z,8.23
2019-05-23T21:07:59.525Z,8.27
2019-05-23T21:10:44.415Z,8.50
2019-05-23T21:13:20.034Z,8.63
2019-05-23T21:15:55.419Z,8.20
2019-05-23T21:18:30.804Z,8.57
2019-05-23T21:21:04.601Z,8.83
2019-05-23T21:23:40.223Z,8.43
2019-05-23T21:26:15.830Z,8.87
2019-05-23T21:28:51.089Z,8.30
2019-05-23T21:31:26.482Z,8.47
2019-05-23T21:34:00.469Z,7.93
2019-05-23T21:36:35.714Z,8.90
2019-05-23T21:39:12.571Z,8.20
2019-05-23T21:41:47.924Z,8.13
2019-05-23T21:44:23.181Z,8.07
2019-05-23T21:46:58.753Z,8.00
2019-05-23T21:49:32.579Z,8.10
2019-05-23T21:52:06.557Z,8.00
2019-05-23T21:54:42.032Z,7.90
2019-05-23T21:57:16.297Z,7.50
2019-05-23T21:59:51.629Z,7.77
2019-05-23T22:02:25.588Z,7.43
2019-05-23T22:04:59.380Z,7.30
2019-05-23T22:07:33.276Z,7.37
2019-05-23T22:10:07.887Z,7.90
2019-05-23T22:12:45.779Z,7.30
2019-05-23T22:15:23.813Z,7.10
2019-05-23T22:17:58.303Z,7.78
2019-05-23T22:20:34.064Z,7.90
2019-05-23T22:23:08.272Z,6.67
2019-05-23T22:25:42.563Z,7.60
2019-05-23T22:28:16.972Z,6.87
2019-05-23T22:30:51.240Z,7.23
2019-05-23T22:33:27.122Z,7.13
2019-05-23T22:36:02.824Z,7.10
2019-05-23T22:38:38.748Z,7.03
2019-05-23T22:41:13.606Z,7.07
2019-05-23T22:43:50.209Z,7.35
2019-05-23T22:46:26.315Z,6.90
2019-05-23T22:49:00.384Z,8.03
2019-05-23T22:51:35.901Z,7.00
2019-05-23T22:54:14.682Z,7.50
2019-05-23T22:56:48.698Z,7.73
2019-05-23T22:59:23.529Z,6.80
2019-05-23T23:02:00.544Z,7.40
2019-05-23T23:04:34.710Z,7.58
2019-05-23T23:07:08.693Z,6.53
2019-05-23T23:09:44.357Z,7.60
2019-05-23T23:12:18.356Z,7.80
2019-05-23T23:14:54.167Z,7.60
2019-05-23T23:17:30.347Z,7.43
2019-05-23T23:20:05.982Z,7.93
2019-05-23T23:22:40.422Z,7.70
2019-05-23T23:25:16.877Z,7.60
2019-05-23T23:27:50.996Z,7.47
2019-05-23T23:30:25.037Z,7.77
2019-05-23T23:33:00.109Z,7.72
2019-05-23T23:35:34.141Z,7.17
2019-05-23T23:38:09.985Z,6.83
2019-05-23T23:40:45.659Z,7.20
2019-05-23T23:43:21.865Z,7.37
2019-05-23T23:45:57.568Z,7.27
2019-05-23T23:48:31.393Z,7.13
2019-05-23T23:51:05.915Z,7.05
2019-05-23T23:53:40.087Z,6.97
2019-05-23T23:56:14.499Z,6.93
2019-05-23T23:58:50.106Z,7.63
